createdAt,value
2023-04-26T00:01:30.888Z,0.50
2023-04-26T00:03:57.883Z,0.47
2023-04-26T00:06:24.853Z,0.40
2023-04-26T00:08:51.740Z,0.40
2023-04-26T00:11:18.750Z,0.57
2023-04-26T00:13:45.869Z,0.38
2023-04-26T00:16:14.180Z,0.40
2023-04-26T00:18:41.183Z,0.40
2023-04-26T00:21:07.874Z,0.40
2023-04-26T00:23:36.538Z,0.43
2023-04-26T00:26:03.395Z,0.38
2023-04-26T00:28:31.408Z,0.40
2023-04-26T00:30:58.198Z,0.40
2023-04-26T00:33:25.373Z,0.40
2023-04-26T00:35:52.459Z,0.40
2023-04-26T00:38:19.098Z,0.40
2023-04-26T00:40:45.721Z,0.40
2023-04-26T00:43:12.371Z,0.50
2023-04-26T00:45:39.679Z,0.40
2023-04-26T00:48:06.521Z,0.50
2023-04-26T00:50:33.771Z,0.40
2023-04-26T00:53:02.518Z,0.40
2023-04-26T00:55:29.434Z,0.40
2023-04-26T00:57:56.117Z,0.40
2023-04-26T01:00:22.905Z,0.40
2023-04-26T01:02:49.863Z,0.40
2023-04-26T01:05:17.302Z,0.50
2023-04-26T01:07:44.964Z,0.50
2023-04-26T01:10:12.083Z,0.50
2023-04-26T01:12:39.266Z,0.50
2023-04-26T01:15:06.355Z,0.50
2023-04-26T01:17:33.675Z,0.50
2023-04-26T01:20:00.439Z,0.50
2023-04-26T01:22:28.502Z,0.40
2023-04-26T01:24:56.432Z,0.40
2023-04-26T01:27:23.123Z,0.50
2023-04-26T01:29:49.839Z,0.50
2023-04-26T01:32:16.642Z,0.40
2023-04-26T01:34:43.364Z,0.40
2023-04-26T01:37:10.202Z,0.40
2023-04-26T01:39:37.071Z,0.50
2023-04-26T01:42:04.809Z,0.40
2023-04-26T01:44:31.788Z,0.50
2023-04-26T01:46:58.442Z,0.50
2023-04-26T01:49:25.122Z,0.40
2023-04-26T01:51:52.104Z,0.40
2023-04-26T01:54:18.851Z,0.50
2023-04-26T01:56:45.489Z,0.50
2023-04-26T01:59:12.360Z,0.40
2023-04-26T02:01:41.325Z,0.30
2023-04-26T02:04:08.041Z,0.40
2023-04-26T02:06:34.677Z,0.40
2023-04-26T02:09:01.276Z,0.50
2023-04-26T02:11:27.945Z,0.50
2023-04-26T02:13:54.680Z,0.50
2023-04-26T02:16:21.738Z,0.50
2023-04-26T02:18:49.853Z,0.50
2023-04-26T02:21:18.515Z,0.50
2023-04-26T02:23:45.597Z,0.43
2023-04-26T02:26:12.850Z,0.50
2023-04-26T02:28:39.640Z,0.50
2023-04-26T02:31:06.381Z,0.40
2023-04-26T02:33:33.375Z,0.40
2023-04-26T02:36:03.221Z,0.63
2023-04-26T02:38:29.877Z,0.40
2023-04-26T02:41:00.414Z,0.40
2023-04-26T02:43:27.192Z,0.50
2023-04-26T02:45:53.919Z,0.50
2023-04-26T02:48:20.711Z,0.50
2023-04-26T02:50:47.648Z,0.50
2023-04-26T02:53:14.431Z,0.50
2023-04-26T02:55:41.169Z,0.45
2023-04-26T02:58:07.905Z,0.50
2023-04-26T03:00:34.803Z,0.40
2023-04-26T03:03:01.963Z,0.60
2023-04-26T03:05:28.873Z,0.50
2023-04-26T03:07:55.824Z,0.50
2023-04-26T03:10:22.805Z,0.50
2023-04-26T03:12:49.438Z,0.50
2023-04-26T03:15:16.085Z,0.50
2023-04-26T03:17:43.441Z,0.50
2023-04-26T03:20:11.128Z,0.55
2023-04-26T03:22:37.788Z,0.60
2023-04-26T03:25:05.363Z,0.50
2023-04-26T03:27:32.518Z,0.50
2023-04-26T03:29:59.262Z,0.60
2023-04-26T03:32:26.006Z,0.50
2023-04-26T03:34:52.761Z,0.50
2023-04-26T03:37:19.402Z,0.50
2023-04-26T03:39:46.144Z,0.50
2023-04-26T03:42:12.870Z,0.50
2023-04-26T03:44:39.635Z,0.50
2023-04-26T03:47:06.440Z,0.50
2023-04-26T03:49:33.603Z,0.50
2023-04-26T03:52:00.302Z,0.50
2023-04-26T03:54:26.958Z,0.50
2023-04-26T03:56:53.564Z,0.50
2023-04-26T03:59:20.323Z,0.50
2023-04-26T04:01:47.126Z,0.50
2023-04-26T04:04:14.221Z,0.40
2023-04-26T04:06:41.905Z,0.50
2023-04-26T04:09:09.070Z,0.50
2023-04-26T04:11:35.992Z,0.43
2023-04-26T04:14:02.954Z,0.50
2023-04-26T04:16:29.959Z,0.50
2023-04-26T04:18:56.873Z,0.60
2023-04-26T04:21:23.557Z,0.50
2023-04-26T04:23:50.316Z,0.50
2023-04-26T04:26:17.443Z,0.50
2023-04-26T04:28:45.488Z,0.50
2023-04-26T04:33:39.789Z,0.57
2023-04-26T04:36:07.202Z,0.50
2023-04-26T04:38:34.217Z,0.50
2023-04-26T04:41:00.920Z,0.50
2023-04-26T04:43:27.959Z,0.50
2023-04-26T04:45:55.468Z,0.47
2023-04-26T04:48:22.222Z,0.50
2023-04-26T04:50:50.441Z,0.47
2023-04-26T04:53:17.411Z,0.50
2023-04-26T04:55:44.289Z,0.60
2023-04-26T04:58:10.998Z,0.40
2023-04-26T05:00:38.685Z,0.50
2023-04-26T05:03:05.587Z,0.50
2023-04-26T05:05:32.439Z,0.50
2023-04-26T05:07:59.246Z,0.40
2023-04-26T05:10:26.024Z,0.50
2023-04-26T05:12:52.711Z,0.50
2023-04-26T05:15:19.471Z,0.50
2023-04-26T05:17:46.495Z,0.40
2023-04-26T05:20:14.750Z,0.50
2023-04-26T05:22:41.428Z,0.50
2023-04-26T05:25:09.099Z,0.50
2023-04-26T05:27:37.399Z,0.60
2023-04-26T05:30:06.028Z,0.60
2023-04-26T05:32:32.778Z,0.60
2023-04-26T05:34:59.525Z,0.40
2023-04-26T05:37:26.262Z,0.40
2023-04-26T05:39:52.972Z,0.40
2023-04-26T05:42:19.772Z,0.40
2023-04-26T05:44:46.659Z,0.50
2023-04-26T05:47:13.388Z,0.60
2023-04-26T05:49:39.999Z,0.50
2023-04-26T05:52:06.764Z,0.47
2023-04-26T05:54:33.437Z,0.50
2023-04-26T05:57:00.204Z,0.50
2023-04-26T05:59:26.932Z,0.40
2023-04-26T06:01:53.749Z,0.50
2023-04-26T06:04:20.821Z,0.40
2023-04-26T06:06:47.683Z,0.40
2023-04-26T06:09:14.391Z,0.47
2023-04-26T06:11:41.073Z,0.40
2023-04-26T06:14:12.202Z,0.40
2023-04-26T06:16:46.758Z,0.50
2023-04-26T06:19:13.443Z,0.50
2023-04-26T06:21:40.091Z,0.50
2023-04-26T06:24:07.126Z,0.45
2023-04-26T06:26:33.919Z,0.50
2023-04-26T06:29:00.552Z,0.40
2023-04-26T06:31:27.321Z,0.50
2023-04-26T06:33:54.323Z,0.50
2023-04-26T06:36:21.419Z,0.47
2023-04-26T06:38:48.162Z,0.40
2023-04-26T06:41:15.183Z,0.40
2023-04-26T06:43:41.828Z,0.50
2023-04-26T06:46:08.526Z,0.40
2023-04-26T06:48:35.479Z,0.45
2023-04-26T06:51:09.196Z,0.50
2023-04-26T06:53:36.864Z,0.40
2023-04-26T06:56:03.913Z,0.50
2023-04-26T06:58:30.626Z,0.50
2023-04-26T07:00:57.319Z,0.40
2023-04-26T07:03:24.949Z,0.40
2023-04-26T07:05:51.749Z,0.50
2023-04-26T07:08:18.689Z,0.50
2023-04-26T07:10:45.414Z,0.38
2023-04-26T07:13:12.153Z,0.40
2023-04-26T07:15:38.853Z,0.40
2023-04-26T07:18:05.569Z,0.40
2023-04-26T07:20:32.254Z,0.50
2023-04-26T07:22:58.969Z,0.40
2023-04-26T07:25:25.601Z,0.40
2023-04-26T07:27:52.378Z,0.40
2023-04-26T07:30:19.225Z,0.40
2023-04-26T07:32:46.141Z,0.40
2023-04-26T07:35:16.287Z,0.40
2023-04-26T07:37:44.176Z,0.40
2023-04-26T07:40:11.919Z,0.40
2023-04-26T07:42:38.596Z,0.40
2023-04-26T07:45:05.987Z,0.30
2023-04-26T07:47:32.795Z,0.40
2023-04-26T07:49:59.756Z,0.40
2023-04-26T07:52:26.435Z,0.40
2023-04-26T07:54:53.307Z,0.40
2023-04-26T07:57:19.995Z,0.32
2023-04-26T07:59:46.655Z,0.40
2023-04-26T08:02:13.620Z,0.35
2023-04-26T08:04:48.447Z,0.30
2023-04-26T08:07:15.790Z,0.30
2023-04-26T08:09:42.499Z,0.40
2023-04-26T08:12:09.282Z,0.32
2023-04-26T08:14:36.790Z,0.30
2023-04-26T08:17:03.602Z,0.30
2023-04-26T08:19:32.649Z,0.40
2023-04-26T08:21:59.883Z,0.30
2023-04-26T08:24:26.599Z,0.30
2023-04-26T08:26:53.365Z,0.30
2023-04-26T08:29:20.698Z,0.30
2023-04-26T08:31:47.440Z,0.30
2023-04-26T08:34:14.148Z,0.40
2023-04-26T08:36:43.783Z,0.40
2023-04-26T08:39:12.265Z,0.30
2023-04-26T08:41:52.854Z,0.40
2023-04-26T08:44:26.694Z,0.30
2023-04-26T08:47:25.778Z,0.40
2023-04-26T08:50:05.156Z,0.40
2023-04-26T08:52:32.765Z,0.40
2023-04-26T08:55:00.699Z,0.30
2023-04-26T08:57:27.822Z,0.40
2023-04-26T08:59:57.787Z,0.30
2023-04-26T09:02:24.814Z,0.30
2023-04-26T09:04:52.010Z,0.30
2023-04-26T09:07:27.554Z,0.40
2023-04-26T09:09:57.794Z,0.30
2023-04-26T09:12:25.400Z,0.30
2023-04-26T09:14:53.215Z,0.40
2023-04-26T09:17:31.036Z,0.30
2023-04-26T09:19:59.514Z,0.40
2023-04-26T09:22:33.476Z,0.30
2023-04-26T09:25:02.346Z,0.30
2023-04-26T09:27:37.824Z,0.30
2023-04-26T09:30:10.710Z,0.32
2023-04-26T09:32:55.878Z,0.40
2023-04-26T09:35:27.505Z,0.30
2023-04-26T09:38:10.441Z,0.30
2023-04-26T09:40:48.217Z,0.40
2023-04-26T09:43:20.119Z,0.30
2023-04-26T09:45:57.624Z,0.30
2023-04-26T09:48:26.849Z,0.30
2023-04-26T09:50:55.841Z,0.30
2023-04-26T09:53:44.719Z,0.30
2023-04-26T09:56:13.839Z,0.30
2023-04-26T09:58:46.674Z,0.30
2023-04-26T10:01:18.089Z,0.40
2023-04-26T10:03:46.375Z,0.30
2023-04-26T10:06:13.521Z,0.30
2023-04-26T10:08:40.307Z,0.30
2023-04-26T10:11:07.952Z,0.30
2023-04-26T10:13:35.127Z,0.30
2023-04-26T10:16:02.925Z,0.30
2023-04-26T10:18:31.410Z,0.30
2023-04-26T10:21:07.439Z,0.35
2023-04-26T10:23:35.107Z,0.40
2023-04-26T10:26:01.786Z,0.30
2023-04-26T10:28:59.974Z,0.40
2023-04-26T10:32:01.563Z,0.30
2023-04-26T10:34:33.207Z,0.30
2023-04-26T10:37:12.970Z,0.40
2023-04-26T10:39:48.893Z,0.30
2023-04-26T10:42:32.300Z,0.30
2023-04-26T10:45:00.518Z,0.30
2023-04-26T10:47:36.995Z,0.22
2023-04-26T10:50:08.860Z,0.22
2023-04-26T10:53:01.952Z,0.30
2023-04-26T10:55:43.971Z,0.30
2023-04-26T10:58:32.967Z,0.30
2023-04-26T11:01:13.443Z,0.30
2023-04-26T11:04:04.465Z,0.30
2023-04-26T11:06:51.018Z,0.30
2023-04-26T11:09:37.765Z,0.30
2023-04-26T11:12:05.875Z,0.30
2023-04-26T11:14:35.774Z,0.30
2023-04-26T11:17:06.361Z,0.30
2023-04-26T11:19:33.409Z,0.30
2023-04-26T11:22:03.684Z,0.40
2023-04-26T11:24:31.479Z,0.30
2023-04-26T11:26:58.432Z,0.30
2023-04-26T11:29:27.140Z,0.38
2023-04-26T11:31:54.466Z,0.30
2023-04-26T11:34:32.075Z,0.30
2023-04-26T11:36:59.455Z,0.30
2023-04-26T11:39:27.196Z,0.35
2023-04-26T11:42:14.133Z,0.30
2023-04-26T11:44:41.371Z,0.30
2023-04-26T11:47:09.061Z,0.40
2023-04-26T11:49:37.756Z,0.25
2023-04-26T11:52:06.111Z,0.30
2023-04-26T11:54:34.921Z,0.30
2023-04-26T11:57:13.756Z,0.30
2023-04-26T11:59:42.054Z,0.30
2023-04-26T12:02:09.364Z,0.30
2023-04-26T12:04:37.570Z,0.30
2023-04-26T12:07:05.100Z,0.30
2023-04-26T12:09:32.218Z,0.30
2023-04-26T12:12:00.661Z,0.30
2023-04-26T12:14:34.756Z,0.30
2023-04-26T12:17:03.714Z,0.30
2023-04-26T12:19:37.303Z,0.30
2023-04-26T12:22:05.176Z,0.35
2023-04-26T12:24:37.045Z,0.30
2023-04-26T12:27:06.584Z,0.30
2023-04-26T12:29:34.199Z,0.30
2023-04-26T12:32:02.146Z,0.20
2023-04-26T12:36:56.189Z,0.30
2023-04-26T12:39:23.047Z,0.32
2023-04-26T12:41:49.992Z,0.30
2023-04-26T12:44:17.918Z,0.30
2023-04-26T12:46:46.808Z,0.30
2023-04-26T12:49:13.694Z,0.30
2023-04-26T12:51:40.812Z,0.30
2023-04-26T12:54:07.959Z,0.23
2023-04-26T12:56:38.614Z,0.30
2023-04-26T12:59:05.294Z,0.30
2023-04-26T13:01:36.264Z,0.30
2023-04-26T13:04:05.634Z,0.30
2023-04-26T13:06:33.267Z,0.30
2023-04-26T13:09:00.001Z,0.30
2023-04-26T13:11:26.634Z,0.22
2023-04-26T13:13:53.336Z,0.20
2023-04-26T13:16:20.095Z,0.22
2023-04-26T13:18:46.809Z,0.20
2023-04-26T13:21:13.437Z,0.30
2023-04-26T13:23:40.132Z,0.30
2023-04-26T13:26:07.769Z,0.30
2023-04-26T13:28:36.328Z,0.30
2023-04-26T13:31:03.227Z,0.38
2023-04-26T13:33:30.282Z,0.28
2023-04-26T13:35:57.011Z,0.30
2023-04-26T13:38:23.679Z,0.30
2023-04-26T13:40:50.303Z,0.30
2023-04-26T13:43:17.045Z,0.28
2023-04-26T13:45:44.104Z,0.30
2023-04-26T13:48:10.874Z,0.30
2023-04-26T13:50:37.601Z,0.30
2023-04-26T13:53:04.615Z,0.30
2023-04-26T13:55:31.382Z,0.30
2023-04-26T13:57:58.165Z,0.30
2023-04-26T14:00:25.086Z,0.30
2023-04-26T14:02:52.027Z,0.30
2023-04-26T14:05:19.010Z,0.30
2023-04-26T14:07:45.821Z,0.30
2023-04-26T14:10:12.506Z,0.30
2023-04-26T14:12:39.735Z,0.30
2023-04-26T14:15:07.295Z,0.30
2023-04-26T14:17:34.214Z,0.30
2023-04-26T14:20:01.240Z,0.30
2023-04-26T14:22:28.005Z,0.20
2023-04-26T14:24:54.912Z,0.30
2023-04-26T14:27:22.876Z,0.22
2023-04-26T14:32:16.247Z,0.30
2023-04-26T14:34:43.250Z,0.30
2023-04-26T14:37:11.706Z,0.30
2023-04-26T14:39:38.761Z,0.30
2023-04-26T14:42:05.632Z,0.30
2023-04-26T14:44:32.553Z,0.30
2023-04-26T14:46:59.383Z,0.20
2023-04-26T14:49:26.077Z,0.30
2023-04-26T14:51:53.631Z,0.30
2023-04-26T14:54:23.306Z,0.20
2023-04-26T14:56:51.713Z,0.30
2023-04-26T14:59:18.512Z,0.30
2023-04-26T15:01:45.417Z,0.20
2023-04-26T15:04:12.502Z,0.25
2023-04-26T15:06:41.207Z,0.30
2023-04-26T15:09:08.785Z,0.30
2023-04-26T15:11:37.055Z,0.30
2023-04-26T15:14:04.574Z,0.30
2023-04-26T15:16:32.991Z,0.30
2023-04-26T15:18:59.887Z,0.20
2023-04-26T15:21:28.991Z,0.30
2023-04-26T15:23:58.661Z,0.20
2023-04-26T15:26:25.956Z,0.30
2023-04-26T15:28:52.664Z,0.20
2023-04-26T15:31:21.029Z,0.30
2023-04-26T15:33:48.216Z,0.30
2023-04-26T15:36:20.437Z,0.30
2023-04-26T15:38:50.733Z,0.22
2023-04-26T15:41:17.357Z,0.30
2023-04-26T15:43:44.003Z,0.30
2023-04-26T15:46:14.621Z,0.30
2023-04-26T15:48:41.276Z,0.20
2023-04-26T15:51:08.451Z,0.30
2023-04-26T15:53:35.579Z,0.30
2023-04-26T15:56:13.176Z,0.30
2023-04-26T15:58:42.091Z,0.30
2023-04-26T16:01:09.039Z,0.30
2023-04-26T16:03:36.224Z,0.30
2023-04-26T16:06:03.732Z,0.30
2023-04-26T16:08:39.879Z,0.30
2023-04-26T16:11:07.255Z,0.30
2023-04-26T16:13:34.288Z,0.30
2023-04-26T16:16:01.100Z,0.30
2023-04-26T16:18:27.881Z,0.30
2023-04-26T16:21:07.024Z,0.20
2023-04-26T16:23:34.233Z,0.22
2023-04-26T16:26:01.425Z,0.20
2023-04-26T16:28:29.584Z,0.30
2023-04-26T16:30:59.112Z,0.30
2023-04-26T16:33:28.270Z,0.30
2023-04-26T16:35:55.482Z,0.30
2023-04-26T16:38:24.140Z,0.20
2023-04-26T16:40:58.920Z,0.30
2023-04-26T16:43:30.244Z,0.30
2023-04-26T16:46:01.280Z,0.30
2023-04-26T16:48:31.904Z,0.30
2023-04-26T16:51:00.351Z,0.30
2023-04-26T16:53:27.158Z,0.30
2023-04-26T16:55:53.966Z,0.30
2023-04-26T16:58:23.182Z,0.20
2023-04-26T17:00:50.361Z,0.30
2023-04-26T17:03:18.142Z,0.30
2023-04-26T17:08:17.301Z,0.30
2023-04-26T17:10:44.997Z,0.30
2023-04-26T17:13:12.843Z,0.30
2023-04-26T17:15:41.590Z,0.30
2023-04-26T17:18:09.309Z,0.30
2023-04-26T17:20:36.590Z,0.30
2023-04-26T17:23:04.340Z,0.30
2023-04-26T17:25:31.661Z,0.30
2023-04-26T17:27:58.637Z,0.30
2023-04-26T17:30:25.373Z,0.20
2023-04-26T17:32:52.357Z,0.32
2023-04-26T17:35:19.067Z,0.25
2023-04-26T17:37:52.257Z,0.30
2023-04-26T17:40:19.681Z,0.30
2023-04-26T17:42:46.767Z,0.30
2023-04-26T17:45:14.663Z,0.30
2023-04-26T17:47:42.470Z,0.20
2023-04-26T17:50:09.725Z,0.30
2023-04-26T17:52:38.788Z,0.30
2023-04-26T17:55:08.837Z,0.30
2023-04-26T17:57:37.127Z,0.30
2023-04-26T18:00:06.553Z,0.30
2023-04-26T18:02:33.577Z,0.20
2023-04-26T18:05:00.887Z,0.30
2023-04-26T18:07:29.277Z,0.30
2023-04-26T18:09:56.064Z,0.30
2023-04-26T18:12:23.111Z,0.25
2023-04-26T18:14:49.812Z,0.30
2023-04-26T18:17:17.282Z,0.30
2023-04-26T18:19:44.272Z,0.38
2023-04-26T18:22:11.076Z,0.30
2023-04-26T18:24:38.347Z,0.30
2023-04-26T18:27:06.348Z,0.30
2023-04-26T18:31:59.652Z,0.30
2023-04-26T18:34:26.956Z,0.20
2023-04-26T18:36:54.876Z,0.30
2023-04-26T18:39:21.600Z,0.20
2023-04-26T18:41:48.878Z,0.30
2023-04-26T18:44:16.059Z,0.20
2023-04-26T18:46:43.503Z,0.30
2023-04-26T18:49:11.021Z,0.40
2023-04-26T18:51:37.772Z,0.40
2023-04-26T18:54:06.049Z,0.30
2023-04-26T18:56:33.242Z,0.30
2023-04-26T18:59:00.004Z,0.20
2023-04-26T19:01:27.174Z,0.30
2023-04-26T19:03:54.151Z,0.30
2023-04-26T19:06:21.483Z,0.30
2023-04-26T19:08:48.450Z,0.30
2023-04-26T19:11:19.298Z,0.20
2023-04-26T19:13:48.883Z,0.30
2023-04-26T19:16:16.242Z,0.30
2023-04-26T19:18:44.192Z,0.30
2023-04-26T19:23:46.584Z,0.30
2023-04-26T19:26:13.741Z,0.30
2023-04-26T19:28:42.465Z,0.35
2023-04-26T19:31:09.350Z,0.30
2023-04-26T19:33:37.159Z,0.30
2023-04-26T19:36:04.856Z,0.30
2023-04-26T19:38:33.191Z,0.25
2023-04-26T19:43:27.914Z,0.30
2023-04-26T19:45:54.623Z,0.30
2023-04-26T19:48:26.076Z,0.40
2023-04-26T19:50:52.818Z,0.30
2023-04-26T19:53:19.731Z,0.30
2023-04-26T19:55:48.963Z,0.30
2023-04-26T19:58:16.368Z,0.30
2023-04-26T20:00:43.719Z,0.30
2023-04-26T20:03:11.090Z,0.40
2023-04-26T20:05:37.976Z,0.30
2023-04-26T20:08:05.009Z,0.30
2023-04-26T20:10:33.613Z,0.30
2023-04-26T20:13:03.093Z,0.22
2023-04-26T20:15:32.951Z,0.30
2023-04-26T20:18:02.137Z,0.30
2023-04-26T20:20:29.194Z,0.30
2023-04-26T20:22:56.350Z,0.40
2023-04-26T20:25:23.747Z,0.30
2023-04-26T20:27:50.404Z,0.30
2023-04-26T20:30:17.175Z,0.30
2023-04-26T20:32:45.148Z,0.30
2023-04-26T20:35:13.613Z,0.30
2023-04-26T20:37:40.761Z,0.30
2023-04-26T20:40:08.182Z,0.30
2023-04-26T20:42:34.940Z,0.30
2023-04-26T20:45:02.392Z,0.40
2023-04-26T20:47:29.553Z,0.30
2023-04-26T20:49:56.719Z,0.40
2023-04-26T20:52:23.728Z,0.30
2023-04-26T20:54:50.364Z,0.32
2023-04-26T20:57:18.277Z,0.30
2023-04-26T20:59:45.557Z,0.40
2023-04-26T21:02:12.283Z,0.30
2023-04-26T21:04:41.756Z,0.40
2023-04-26T21:07:09.841Z,0.30
2023-04-26T21:09:36.497Z,0.30
2023-04-26T21:12:03.417Z,0.30
2023-04-26T21:14:30.184Z,0.30
2023-04-26T21:16:56.996Z,0.30
2023-04-26T21:19:24.297Z,0.30
2023-04-26T21:21:51.117Z,0.32
2023-04-26T21:24:18.098Z,0.30
2023-04-26T21:26:45.034Z,0.30
2023-04-26T21:29:12.332Z,0.40
2023-04-26T21:31:39.015Z,0.30
2023-04-26T21:34:05.912Z,0.30
2023-04-26T21:36:32.541Z,0.30
2023-04-26T21:38:59.244Z,0.38
2023-04-26T21:41:25.974Z,0.38
2023-04-26T21:43:56.024Z,0.30
2023-04-26T21:46:22.987Z,0.30
2023-04-26T21:48:49.751Z,0.40
2023-04-26T21:51:16.397Z,0.30
2023-04-26T21:53:43.624Z,0.30
2023-04-26T21:56:10.674Z,0.30
2023-04-26T21:58:37.373Z,0.40
2023-04-26T22:01:09.559Z,0.40
2023-04-26T22:03:37.091Z,0.32
2023-04-26T22:06:05.119Z,0.30
2023-04-26T22:10:59.182Z,0.30
2023-04-26T22:13:26.047Z,0.30
2023-04-26T22:15:52.881Z,0.30
2023-04-26T22:18:19.733Z,0.30
2023-04-26T22:20:46.360Z,0.40
2023-04-26T22:23:13.037Z,0.30
2023-04-26T22:25:39.793Z,0.30
2023-04-26T22:28:06.748Z,0.40
2023-04-26T22:30:33.341Z,0.40
2023-04-26T22:33:00.164Z,0.30
2023-04-26T22:35:27.607Z,0.30
2023-04-26T22:37:55.035Z,0.40
2023-04-26T22:40:21.764Z,0.40
2023-04-26T22:42:48.421Z,0.40
2023-04-26T22:45:15.207Z,0.38
2023-04-26T22:47:42.146Z,0.38
2023-04-26T22:50:09.161Z,0.40
2023-04-26T22:52:36.741Z,0.30
2023-04-26T22:55:03.517Z,0.38
2023-04-26T22:57:31.091Z,0.30
2023-04-26T22:59:58.198Z,0.30
2023-04-26T23:02:25.025Z,0.30
2023-04-26T23:04:51.828Z,0.30
2023-04-26T23:07:18.606Z,0.35
2023-04-26T23:09:45.522Z,0.40
2023-04-26T23:12:16.242Z,0.30
2023-04-26T23:14:43.167Z,0.30
2023-04-26T23:17:11.958Z,0.40
2023-04-26T23:19:38.703Z,0.30
2023-04-26T23:22:05.355Z,0.40
2023-04-26T23:24:32.020Z,0.38
2023-04-26T23:26:58.698Z,0.30
2023-04-26T23:29:25.544Z,0.30
2023-04-26T23:31:52.416Z,0.32
2023-04-26T23:34:19.106Z,0.32
2023-04-26T23:36:45.824Z,0.40
2023-04-26T23:39:12.715Z,0.30
2023-04-26T23:41:39.609Z,0.40
2023-04-26T23:44:07.150Z,0.32
2023-04-26T23:46:33.898Z,0.40
2023-04-26T23:49:00.591Z,0.30
2023-04-26T23:51:27.571Z,0.38
2023-04-26T23:53:54.342Z,0.40
2023-04-26T23:56:21.323Z,0.35
2023-04-26T23:58:48.008Z,0.40
